Meaford, Canada
Current Conditions -  °F | °C
As of 11:00 PM on Sunday 25 Jan 2015 (Local Time) from CYVV Reporting Station
Few Clouds Few Clouds  
Wind Chill: -5°   Ceiling: Unl
Heat Index: 10°   Visibility: 15mi
Dew Point:   Wind: 14mph
Humidity: 67%   Direction: 60°ENE
Pressure: 30.06"   Gusts: NA
Location:  44.61°N, 80.59°W
Report Text: CYVV 260400Z 06012KT 15SM FEW020 FEW120 M12/M17 A3006 RMK SC1AC1 SC TR SLP196
Loading
Personal Weather Stations






























Interactive Weather Map New forecast layout! Learn more

10-Day Weather Forecast

Advertisements
Track Severe Weather on mobile